Time;durP1;ratioP1;P1;durP2;ratioP2;P2;SDS_P1;SDS_P2;PMS_P1;PMS_P2;Temp;Humidity;BMP_temperature;BMP_pressure;BME280_temperature;BME280_humidity;BME280_pressure;Samples;Min_cycle;Max_cycle;Signal;HPM_P1;HPM_P2
2022/06/03 00:00:32;;;;;;;15.43;13.73;;;;;;;;;;6276501;22;20016;-73
2022/06/03 00:03:06;;;;;;;18.95;14.68;;;;;;;;;;6276459;22;20016;-73
2022/06/03 00:05:51;;;;;;;18.95;14.32;;;;;;;;;;6276409;22;20015;-73
2022/06/03 00:08:38;;;;;;;19.42;13.60;;;;;;;;;;6276390;22;20020;-74
2022/06/03 00:11:14;;;;;;;15.93;13.50;;;;;;;;;;6276357;22;20042;-73
2022/06/03 00:14:00;;;;;;;17.63;13.32;;;;;;;;;;6276220;22;20016;-73
2022/06/03 00:16:46;;;;;;;18.38;13.98;;;;;;;;;;6276273;22;20038;-73
2022/06/03 00:19:23;;;;;;;17.83;13.70;;;;;;;;;;6276332;22;20345;-74
2022/06/03 00:22:06;;;;;;;18.92;14.20;;;;;;;;;;6276242;22;20020;-73
2022/06/03 00:24:53;;;;;;;19.83;14.63;;;;;;;;;;6276371;22;20085;-73
2022/06/03 00:27:20;;;;;;;18.55;13.77;;;;;;;;;;6276270;22;20051;-74
2022/06/03 00:29:53;;;;;;;15.43;13.15;;;;;;;;;;6276066;22;20051;-73
2022/06/03 00:32:40;;;;;;;19.15;13.35;;;;;;;;;;6276289;22;20039;-73
2022/06/03 00:35:07;;;;;;;17.00;12.73;;;;;;;;;;6276035;22;20047;-73
2022/06/03 00:37:36;;;;;;;18.85;13.35;;;;;;;;;;6276052;22;20023;-73
2022/06/03 00:40:22;;;;;;;17.33;14.35;;;;;;;;;;6275749;22;20030;-73
2022/06/03 00:43:04;;;;;;;16.35;13.23;;;;;;;;;;6276079;22;20016;-74
2022/06/03 00:45:51;;;;;;;15.30;12.65;;;;;;;;;;6276047;22;20026;-73
2022/06/03 00:48:37;;;;;;;15.85;12.32;;;;;;;;;;6276101;22;20012;-73
2022/06/03 00:51:19;;;;;;;15.88;12.70;;;;;;;;;;6276074;22;20011;-73
2022/06/03 00:53:47;;;;;;;18.33;13.82;;;;;;;;;;6275873;22;20020;-74
2022/06/03 00:56:33;;;;;;;19.58;12.23;;;;;;;;;;6275744;22;20434;-74
2022/06/03 00:59:07;;;;;;;20.42;12.75;;;;;;;;;;6275891;22;20016;-73
2022/06/03 01:01:53;;;;;;;15.15;11.65;;;;;;;;;;6275981;22;20043;-73
2022/06/03 01:04:24;;;;;;;18.55;11.98;;;;;;;;;;6275974;22;20012;-73
2022/06/03 01:07:12;;;;;;;16.27;12.77;;;;;;;;;;6275806;22;20478;-73
2022/06/03 01:09:45;;;;;;;16.00;12.43;;;;;;;;;;6275925;22;20019;-73
2022/06/03 01:12:13;;;;;;;16.50;12.65;;;;;;;;;;6275634;22;20395;-73
2022/06/03 01:15:10;;;;;;;16.67;12.00;;;;;;;;;;6275918;22;20027;-74
2022/06/03 01:17:37;;;;;;;16.83;12.30;;;;;;;;;;6250617;22;20493;-74
2022/06/03 01:20:08;;;;;;;18.73;12.65;;;;;;;;;;6275963;22;20027;-73
2022/06/03 01:22:41;;;;;;;17.92;11.73;;;;;;;;;;6248932;22;20022;-73
2022/06/03 01:25:13;;;;;;;13.00;10.98;;;;;;;;;;6275670;22;20020;-73
2022/06/03 01:27:43;;;;;;;16.10;11.38;;;;;;;;;;6276015;22;20016;-73
2022/06/03 01:30:17;;;;;;;17.02;10.90;;;;;;;;;;6275816;22;20066;-74
2022/06/03 01:32:47;;;;;;;13.15;10.15;;;;;;;;;;6275395;22;20019;-74
2022/06/03 01:35:15;;;;;;;13.90;10.75;;;;;;;;;;6275786;22;20026;-74
2022/06/03 01:37:56;;;;;;;13.38;10.13;;;;;;;;;;6275752;22;20020;-73
2022/06/03 01:40:24;;;;;;;19.27;10.70;;;;;;;;;;6275499;22;20113;-74
2022/06/03 01:43:10;;;;;;;12.95;9.55;;;;;;;;;;6275681;22;20015;-74
2022/06/03 01:45:50;;;;;;;15.73;11.05;;;;;;;;;;6275704;22;20016;-74
2022/06/03 01:48:32;;;;;;;14.25;10.25;;;;;;;;;;6275710;22;20073;-73
2022/06/03 01:51:19;;;;;;;13.05;10.38;;;;;;;;;;6275509;22;20023;-73
2022/06/03 01:53:58;;;;;;;18.23;10.98;;;;;;;;;;6275668;22;20043;-73
2022/06/03 01:56:34;;;;;;;13.85;10.30;;;;;;;;;;6275653;22;20019;-72
2022/06/03 01:59:05;;;;;;;14.57;10.95;;;;;;;;;;6275526;22;20043;-73
2022/06/03 02:01:36;;;;;;;12.68;9.18;;;;;;;;;;6275530;22;20505;-73
2022/06/03 02:04:03;;;;;;;15.05;10.68;;;;;;;;;;6249017;22;20016;-73
2022/06/03 02:06:59;;;;;;;13.65;10.45;;;;;;;;;;6275917;22;20019;-73
2022/06/03 02:09:31;;;;;;;14.85;9.38;;;;;;;;;;6275485;22;20019;-73
2022/06/03 02:12:06;;;;;;;16.15;9.70;;;;;;;;;;6275622;22;20050;-73
2022/06/03 02:14:53;;;;;;;14.57;10.60;;;;;;;;;;6276069;22;20315;-73
2022/06/03 02:17:39;;;;;;;17.35;9.75;;;;;;;;;;6275602;22;20016;-73
2022/06/03 02:20:07;;;;;;;13.75;10.32;;;;;;;;;;6275254;22;20016;-74
2022/06/03 02:22:52;;;;;;;16.38;10.43;;;;;;;;;;6275980;22;20020;-74
2022/06/03 02:25:23;;;;;;;17.25;9.82;;;;;;;;;;6276034;22;20019;-72
2022/06/03 02:27:54;;;;;;;14.70;9.85;;;;;;;;;;6276943;22;20016;-72
2022/06/03 02:30:40;;;;;;;15.02;11.02;;;;;;;;;;6277370;22;20019;-71
2022/06/03 02:33:10;;;;;;;15.50;10.70;;;;;;;;;;6277624;22;20091;-71
2022/06/03 02:35:54;;;;;;;15.13;10.55;;;;;;;;;;6277026;22;20043;-71
2022/06/03 02:38:40;;;;;;;14.93;10.35;;;;;;;;;;6277255;22;20046;-72
2022/06/03 02:41:20;;;;;;;15.38;9.95;;;;;;;;;;6277348;22;20038;-71
2022/06/03 02:44:08;;;;;;;15.07;10.15;;;;;;;;;;6277395;22;20054;-71
2022/06/03 02:46:41;;;;;;;17.90;10.30;;;;;;;;;;6277068;22;20019;-71
2022/06/03 02:49:14;;;;;;;13.43;11.32;;;;;;;;;;6277247;22;20020;-71
2022/06/03 02:51:54;;;;;;;15.85;10.75;;;;;;;;;;6277172;22;20016;-71
2022/06/03 02:54:34;;;;;;;16.23;10.30;;;;;;;;;;6277154;22;20473;-71
2022/06/03 02:57:07;;;;;;;13.82;10.30;;;;;;;;;;6250159;22;20388;-71
2022/06/03 02:59:35;;;;;;;13.48;10.23;;;;;;;;;;6277020;22;20012;-71
2022/06/03 03:02:23;;;;;;;14.50;9.70;;;;;;;;;;6277095;22;20019;-71
2022/06/03 03:04:56;;;;;;;16.65;10.45;;;;;;;;;;6216336;22;20460;-71
2022/06/03 03:07:43;;;;;;;14.68;10.23;;;;;;;;;;6250180;22;20019;-71
2022/06/03 03:10:39;;;;;;;14.60;9.50;;;;;;;;;;6277196;22;20011;-71
2022/06/03 03:13:19;;;;;;;14.77;10.07;;;;;;;;;;6251549;22;20398;-71
2022/06/03 03:16:02;;;;;;;21.10;13.75;;;;;;;;;;6277146;22;20023;-71
2022/06/03 03:18:29;;;;;;;16.85;11.68;;;;;;;;;;6277201;22;20019;-71
2022/06/03 03:21:00;;;;;;;15.52;9.95;;;;;;;;;;6276961;22;20335;-71
2022/06/03 03:23:46;;;;;;;15.43;10.93;;;;;;;;;;6277043;22;20091;-71
2022/06/03 03:26:16;;;;;;;16.13;9.75;;;;;;;;;;6277132;22;20020;-71
2022/06/03 03:28:43;;;;;;;14.77;9.60;;;;;;;;;;6277107;22;20019;-71
2022/06/03 03:31:34;;;;;;;16.25;12.55;;;;;;;;;;6276863;22;20091;-71
2022/06/03 03:34:02;;;;;;;11.48;9.65;;;;;;;;;;6276403;22;20020;-71
2022/06/03 03:36:48;;;;;;;13.88;9.20;;;;;;;;;;6276817;22;20085;-71
2022/06/03 03:39:32;;;;;;;11.57;9.07;;;;;;;;;;6276326;22;20016;-71
2022/06/03 03:42:19;;;;;;;13.38;9.23;;;;;;;;;;6276771;22;20575;-71
2022/06/03 03:44:49;;;;;;;17.23;9.38;;;;;;;;;;6276223;22;20019;-71
2022/06/03 03:47:17;;;;;;;18.33;10.05;;;;;;;;;;6275230;22;20082;-71
2022/06/03 03:50:03;;;;;;;12.55;8.93;;;;;;;;;;6276427;22;20019;-71
2022/06/03 03:52:49;;;;;;;16.33;9.63;;;;;;;;;;6276451;22;20012;-71
2022/06/03 03:55:37;;;;;;;14.48;10.15;;;;;;;;;;6275200;22;20034;-71
2022/06/03 03:58:24;;;;;;;13.73;9.07;;;;;;;;;;6276102;22;20019;-73
2022/06/03 04:00:58;;;;;;;12.63;9.43;;;;;;;;;;6276485;22;20442;-72
2022/06/03 04:03:44;;;;;;;13.10;9.07;;;;;;;;;;6276378;22;20446;-72
2022/06/03 04:06:31;;;;;;;12.27;8.27;;;;;;;;;;6276222;22;20595;-71
2022/06/03 04:09:02;;;;;;;11.38;8.15;;;;;;;;;;6276147;22;20023;-66
2022/06/03 04:11:48;;;;;;;14.15;7.88;;;;;;;;;;6276459;22;20012;-71
2022/06/03 04:14:35;;;;;;;12.13;7.95;;;;;;;;;;6275992;22;20043;-71
2022/06/03 04:17:41;;;;;;;12.55;7.85;;;;;;;;;;6276213;22;20015;-72
2022/06/03 04:20:09;;;;;;;8.15;7.05;;;;;;;;;;6152744;23;20045;-71
2022/06/03 04:23:05;;;;;;;14.63;8.15;;;;;;;;;;6152715;23;20014;-71
2022/06/03 04:25:46;;;;;;;13.45;7.25;;;;;;;;;;6214654;22;20016;-72
2022/06/03 04:28:31;;;;;;;12.02;7.35;;;;;;;;;;6275940;22;20091;-71
2022/06/03 04:31:08;;;;;;;11.77;7.72;;;;;;;;;;6276035;22;20016;-71
2022/06/03 04:33:56;;;;;;;13.45;7.30;;;;;;;;;;6275894;22;20458;-73
2022/06/03 04:36:26;;;;;;;9.43;7.78;;;;;;;;;;6215405;22;20503;-73
2022/06/03 04:39:12;;;;;;;14.77;8.18;;;;;;;;;;6276102;22;20020;-73
2022/06/03 04:41:58;;;;;;;12.18;7.72;;;;;;;;;;6275690;22;20387;-73
2022/06/03 04:44:45;;;;;;;12.40;7.10;;;;;;;;;;6276109;22;20065;-72
2022/06/03 04:47:21;;;;;;;12.80;7.30;;;;;;;;;;6275762;22;20019;-72
2022/06/03 04:50:08;;;;;;;11.55;7.00;;;;;;;;;;6275818;22;20039;-73
2022/06/03 04:53:00;;;;;;;9.73;6.53;;;;;;;;;;6276037;22;20094;-72
2022/06/03 04:55:40;;;;;;;11.75;6.43;;;;;;;;;;6275851;22;20319;-75
2022/06/03 04:58:26;;;;;;;11.38;6.28;;;;;;;;;;6275772;22;20016;-74
2022/06/03 05:01:12;;;;;;;10.38;6.80;;;;;;;;;;6275859;22;20016;-71
2022/06/03 05:03:58;;;;;;;9.93;6.20;;;;;;;;;;6275623;22;20482;-70
2022/06/03 05:06:35;;;;;;;8.65;6.15;;;;;;;;;;6275469;22;20342;-71
2022/06/03 05:09:21;;;;;;;9.27;5.97;;;;;;;;;;6275881;22;20012;-71
2022/06/03 05:12:27;;;;;;;12.35;6.00;;;;;;;;;;6275872;22;20083;-71
2022/06/03 05:15:13;;;;;;;9.13;5.80;;;;;;;;;;6152286;23;20368;-71
2022/06/03 05:17:47;;;;;;;7.78;5.40;;;;;;;;;;6152433;23;20025;-71
2022/06/03 05:20:20;;;;;;;9.77;5.40;;;;;;;;;;6234670;22;20016;-70
2022/06/03 05:23:06;;;;;;;7.25;4.60;;;;;;;;;;6275799;22;20022;-71
2022/06/03 05:25:40;;;;;;;7.25;5.15;;;;;;;;;;6275810;22;20062;-71
2022/06/03 05:28:23;;;;;;;10.27;5.13;;;;;;;;;;6249237;22;20030;-72
2022/06/03 05:31:00;;;;;;;8.07;4.38;;;;;;;;;;6275884;22;20015;-72
2022/06/03 05:34:03;;;;;;;11.15;4.57;;;;;;;;;;6275733;22;20536;-71
2022/06/03 05:36:55;;;;;;;11.02;4.90;;;;;;;;;;6152168;23;20021;-71
2022/06/03 05:39:25;;;;;;;8.73;4.78;;;;;;;;;;6273234;22;20070;-71
2022/06/03 05:45:01;;;;;;;13.48;8.25;;;;;;;;;;6275726;22;20023;-69
2022/06/03 05:47:34;;;;;;;11.75;8.27;;;;;;;;;;6275753;22;20394;-71
2022/06/03 05:50:13;;;;;;;11.10;5.18;;;;;;;;;;6275808;22;20095;-71
2022/06/03 05:52:50;;;;;;;6.25;4.20;;;;;;;;;;6275779;22;20031;-71
2022/06/03 05:55:21;;;;;;;10.15;4.20;;;;;;;;;;6248946;22;20073;-70
2022/06/03 05:58:08;;;;;;;5.53;3.60;;;;;;;;;;6275596;22;20011;-71
2022/06/03 06:00:36;;;;;;;7.63;4.10;;;;;;;;;;6257360;22;20097;-71
2022/06/03 06:03:23;;;;;;;6.13;3.65;;;;;;;;;;6277800;22;20024;-71
2022/06/03 06:06:06;;;;;;;11.30;4.20;;;;;;;;;;6277721;22;20061;-72
2022/06/03 06:08:46;;;;;;;5.45;4.00;;;;;;;;;;6277598;22;20098;-71
2022/06/03 06:11:19;;;;;;;4.97;3.53;;;;;;;;;;6277612;22;20393;-70
2022/06/03 06:14:05;;;;;;;8.30;3.73;;;;;;;;;;6277617;22;20035;-71
2022/06/03 06:16:40;;;;;;;5.95;3.55;;;;;;;;;;6277511;22;20020;-71
2022/06/03 06:19:10;;;;;;;6.95;3.75;;;;;;;;;;6277610;22;20024;-70
2022/06/03 06:21:57;;;;;;;5.78;3.63;;;;;;;;;;6277556;22;20373;-71
2022/06/03 06:24:30;;;;;;;5.05;3.78;;;;;;;;;;6277946;22;20016;-71
2022/06/03 06:27:17;;;;;;;5.47;3.47;;;;;;;;;;6277481;22;20070;-71
2022/06/03 06:30:05;;;;;;;6.43;3.55;;;;;;;;;;6277426;22;20052;-71
2022/06/03 06:32:35;;;;;;;5.85;3.20;;;;;;;;;;6277478;22;20026;-72
2022/06/03 06:35:02;;;;;;;5.93;3.40;;;;;;;;;;6277967;22;20020;-72
2022/06/03 06:37:30;;;;;;;4.95;3.55;;;;;;;;;;6277348;22;20121;-72
2022/06/03 06:40:03;;;;;;;4.50;3.15;;;;;;;;;;6277476;22;20069;-72
2022/06/03 06:42:46;;;;;;;5.03;3.25;;;;;;;;;;6250230;22;20043;-72
2022/06/03 06:45:14;;;;;;;7.13;3.25;;;;;;;;;;6250123;22;20023;-72
2022/06/03 06:47:47;;;;;;;6.43;3.90;;;;;;;;;;6277069;22;20019;-72
2022/06/03 06:50:18;;;;;;;6.13;3.63;;;;;;;;;;6277025;22;20016;-72
2022/06/03 06:52:48;;;;;;;6.45;3.30;;;;;;;;;;6277074;22;20050;-72
2022/06/03 06:55:29;;;;;;;8.02;3.80;;;;;;;;;;6276930;22;20012;-72
2022/06/03 06:58:00;;;;;;;4.65;3.55;;;;;;;;;;6277168;22;20023;-72
2022/06/03 07:00:30;;;;;;;8.10;3.63;;;;;;;;;;6277012;22;20020;-72
2022/06/03 07:03:05;;;;;;;4.45;3.58;;;;;;;;;;6250209;22;20016;-72
2022/06/03 07:05:33;;;;;;;7.38;3.80;;;;;;;;;;6276913;22;20011;-73
2022/06/03 07:08:00;;;;;;;4.47;3.67;;;;;;;;;;6276857;22;20334;-72
2022/06/03 07:10:32;;;;;;;6.85;3.53;;;;;;;;;;6250043;22;20315;-72
2022/06/03 07:13:09;;;;;;;5.78;4.10;;;;;;;;;;6276947;22;20016;-72
2022/06/03 07:15:36;;;;;;;7.32;3.60;;;;;;;;;;6224475;22;20094;-72
2022/06/03 07:21:08;;;;;;;4.82;3.97;;;;;;;;;;6276706;22;20481;-73
2022/06/03 07:23:46;;;;;;;5.22;3.70;;;;;;;;;;6276733;22;20065;-73
2022/06/03 07:26:18;;;;;;;6.90;3.55;;;;;;;;;;6276537;22;20472;-72
2022/06/03 07:28:48;;;;;;;5.07;3.83;;;;;;;;;;6276694;22;20016;-73
2022/06/03 07:31:21;;;;;;;5.82;3.83;;;;;;;;;;6276674;22;20050;-73
2022/06/03 07:33:49;;;;;;;9.25;4.13;;;;;;;;;;6276570;22;20434;-72
2022/06/03 07:36:16;;;;;;;5.65;3.50;;;;;;;;;;6276630;22;20027;-72
2022/06/03 07:38:53;;;;;;;6.20;3.83;;;;;;;;;;6276793;22;20012;-72
2022/06/03 07:41:26;;;;;;;5.75;3.70;;;;;;;;;;6276564;22;20022;-71
2022/06/03 07:43:53;;;;;;;4.70;3.63;;;;;;;;;;6276715;22;20037;-72
2022/06/03 07:46:23;;;;;;;5.90;3.88;;;;;;;;;;6276703;22;20019;-72
2022/06/03 07:48:51;;;;;;;5.20;3.42;;;;;;;;;;6276591;22;20015;-72
2022/06/03 07:51:31;;;;;;;5.22;3.90;;;;;;;;;;6276757;22;20019;-72
2022/06/03 07:53:58;;;;;;;6.53;3.35;;;;;;;;;;6276602;22;20019;-71
2022/06/03 07:56:28;;;;;;;7.82;3.80;;;;;;;;;;6276480;22;20011;-72
2022/06/03 07:58:57;;;;;;;5.75;4.00;;;;;;;;;;6276388;22;20073;-72
2022/06/03 08:01:26;;;;;;;7.93;4.18;;;;;;;;;;6276848;22;20012;-72
2022/06/03 08:03:54;;;;;;;12.43;6.30;;;;;;;;;;6276502;22;20012;-72
2022/06/03 08:06:27;;;;;;;6.35;3.33;;;;;;;;;;6276444;22;20023;-73
2022/06/03 08:11:42;;;;;;;7.30;3.75;;;;;;;;;;6276459;22;20032;-72
2022/06/03 08:14:10;;;;;;;9.13;3.85;;;;;;;;;;6276476;22;20112;-73
2022/06/03 08:16:43;;;;;;;7.45;3.78;;;;;;;;;;6276332;22;20459;-73
2022/06/03 08:19:12;;;;;;;9.25;3.67;;;;;;;;;;6276304;22;20091;-73
2022/06/03 08:21:51;;;;;;;5.45;3.70;;;;;;;;;;6276198;22;20471;-73
2022/06/03 08:24:30;;;;;;;6.85;3.47;;;;;;;;;;6250833;22;20012;-73
2022/06/03 08:27:10;;;;;;;8.30;3.40;;;;;;;;;;6276322;22;20019;-72
2022/06/03 08:29:40;;;;;;;8.85;3.95;;;;;;;;;;6276257;22;20015;-72
2022/06/03 08:32:10;;;;;;;9.05;3.92;;;;;;;;;;6249545;22;20022;-72
2022/06/03 08:34:43;;;;;;;5.28;4.10;;;;;;;;;;6276503;22;20095;-71
2022/06/03 08:37:19;;;;;;;9.43;4.10;;;;;;;;;;6276531;22;20027;-72
2022/06/03 08:39:47;;;;;;;8.68;4.20;;;;;;;;;;6276132;22;20011;-71
2022/06/03 08:42:22;;;;;;;9.55;6.07;;;;;;;;;;6276855;22;20414;-71
2022/06/03 08:44:58;;;;;;;10.52;4.90;;;;;;;;;;6276484;22;20039;-70
2022/06/03 08:47:37;;;;;;;7.13;4.03;;;;;;;;;;6276113;22;20046;-70
2022/06/03 08:50:23;;;;;;;9.80;4.65;;;;;;;;;;6275984;22;20043;-69
2022/06/03 08:52:55;;;;;;;9.57;3.47;;;;;;;;;;6275552;22;20054;-70
2022/06/03 08:55:26;;;;;;;7.87;3.80;;;;;;;;;;6274801;22;20016;-71
2022/06/03 08:57:56;;;;;;;6.55;3.50;;;;;;;;;;6274128;22;20307;-70
2022/06/03 09:00:25;;;;;;;7.05;3.75;;;;;;;;;;6276303;22;20388;-69
2022/06/03 09:03:02;;;;;;;6.90;3.70;;;;;;;;;;6275924;22;20016;-70
2022/06/03 09:05:37;;;;;;;7.53;4.15;;;;;;;;;;6249588;22;20334;-70
2022/06/03 09:08:24;;;;;;;7.75;3.65;;;;;;;;;;6276056;22;20091;-69
2022/06/03 09:11:01;;;;;;;6.40;3.90;;;;;;;;;;6248566;22;20054;-70
2022/06/03 09:13:28;;;;;;;10.30;4.60;;;;;;;;;;6275849;22;20457;-70
2022/06/03 09:15:56;;;;;;;8.38;5.07;;;;;;;;;;6248582;22;20038;-71
2022/06/03 09:18:32;;;;;;;10.15;4.18;;;;;;;;;;6275892;22;20490;-70
2022/06/03 09:21:05;;;;;;;8.75;4.00;;;;;;;;;;6276298;22;20023;-69
2022/06/03 09:23:34;;;;;;;9.60;5.63;;;;;;;;;;6275950;22;20022;-71
2022/06/03 09:26:02;;;;;;;7.30;5.07;;;;;;;;;;6275825;22;20085;-72
2022/06/03 09:28:29;;;;;;;6.22;4.35;;;;;;;;;;6275823;22;20015;-72
2022/06/03 09:30:58;;;;;;;8.63;4.55;;;;;;;;;;6275612;22;20480;-73
2022/06/03 09:33:27;;;;;;;7.63;3.90;;;;;;;;;;6275821;22;20039;-73
2022/06/03 09:35:57;;;;;;;6.40;3.80;;;;;;;;;;6277582;22;20019;-71
2022/06/03 09:38:26;;;;;;;8.75;4.00;;;;;;;;;;6277791;22;20011;-71
2022/06/03 09:40:57;;;;;;;10.27;4.88;;;;;;;;;;6277658;22;20011;-71
2022/06/03 09:43:27;;;;;;;10.52;4.00;;;;;;;;;;6250518;22;20043;-71
2022/06/03 09:45:56;;;;;;;9.13;4.35;;;;;;;;;;6277767;22;20016;-71
2022/06/03 09:48:26;;;;;;;7.38;3.70;;;;;;;;;;6277603;22;20388;-71
2022/06/03 09:50:55;;;;;;;6.90;4.28;;;;;;;;;;6277489;22;20095;-71
2022/06/03 09:53:26;;;;;;;6.07;3.97;;;;;;;;;;6277535;22;20019;-71
2022/06/03 09:55:55;;;;;;;8.23;3.92;;;;;;;;;;6277476;22;20437;-71
2022/06/03 09:58:28;;;;;;;7.68;3.63;;;;;;;;;;6277416;22;20012;-71
2022/06/03 10:00:57;;;;;;;8.45;4.50;;;;;;;;;;6277561;22;20012;-72
2022/06/03 10:03:25;;;;;;;8.60;4.13;;;;;;;;;;6250447;22;20331;-72
2022/06/03 10:05:56;;;;;;;10.18;4.10;;;;;;;;;;6277667;22;20019;-71
2022/06/03 10:12:48;;;;;;;8.75;3.97;;;;;;;;;;6277485;22;20015;-72
2022/06/03 10:14:04;;;;;;;8.35;4.10;;;;;;;;;;6277534;22;20473;-72
2022/06/03 10:16:32;;;;;;;7.95;3.88;;;;;;;;;;6277456;22;20434;-71
2022/06/03 10:19:00;;;;;;;9.10;4.22;;;;;;;;;;6277713;22;20357;-72
2022/06/03 10:21:30;;;;;;;10.05;4.25;;;;;;;;;;6277425;22;20016;-72
2022/06/03 10:24:03;;;;;;;6.70;3.67;;;;;;;;;;6277331;22;20027;-72
2022/06/03 10:26:35;;;;;;;10.30;4.47;;;;;;;;;;6277344;22;20027;-72
2022/06/03 10:29:10;;;;;;;7.90;4.07;;;;;;;;;;6277314;22;20039;-72
2022/06/03 10:31:47;;;;;;;7.57;3.97;;;;;;;;;;6277075;22;20511;-71
2022/06/03 10:34:19;;;;;;;9.65;3.88;;;;;;;;;;6277102;22;20038;-72
2022/06/03 10:36:49;;;;;;;8.73;4.30;;;;;;;;;;6277237;22;20338;-71
2022/06/03 10:39:18;;;;;;;7.50;4.20;;;;;;;;;;6277129;22;20395;-71
2022/06/03 10:41:47;;;;;;;7.15;4.35;;;;;;;;;;6277147;22;20020;-71
2022/06/03 10:44:23;;;;;;;7.80;4.68;;;;;;;;;;6277122;22;20047;-72
2022/06/03 10:46:53;;;;;;;8.15;3.80;;;;;;;;;;6276457;22;20016;-72
2022/06/03 10:49:22;;;;;;;5.47;3.80;;;;;;;;;;6277116;22;20012;-72
2022/06/03 11:03:00;;;;;;;11.95;3.67;;;;;;;;;;6276988;22;20087;-71
2022/06/03 11:05:29;;;;;;;7.38;4.50;;;;;;;;;;6276005;22;20015;-71
2022/06/03 11:08:14;;;;;;;6.70;3.85;;;;;;;;;;6277012;22;20334;-71
2022/06/03 11:10:42;;;;;;;10.18;4.20;;;;;;;;;;6276817;22;20486;-71
2022/06/03 11:13:15;;;;;;;7.72;3.55;;;;;;;;;;6276970;22;20022;-71
2022/06/03 11:15:47;;;;;;;6.47;4.22;;;;;;;;;;6276736;22;20027;-71
2022/06/03 11:18:18;;;;;;;6.97;4.10;;;;;;;;;;6277107;22;20016;-71
2022/06/03 11:20:47;;;;;;;8.95;4.13;;;;;;;;;;6276939;22;20114;-70
2022/06/03 11:23:15;;;;;;;9.07;3.95;;;;;;;;;;6277096;22;20385;-71
2022/06/03 11:25:46;;;;;;;9.45;4.22;;;;;;;;;;6276778;22;20022;-71
2022/06/03 11:28:25;;;;;;;10.85;5.03;;;;;;;;;;6277278;22;20058;-71
2022/06/03 11:31:10;;;;;;;10.50;6.28;;;;;;;;;;6276810;22;20387;-71
2022/06/03 11:33:46;;;;;;;8.27;3.95;;;;;;;;;;6276882;22;20026;-71
2022/06/03 11:36:27;;;;;;;7.60;3.80;;;;;;;;;;6276531;22;20051;-71
2022/06/03 11:38:57;;;;;;;6.72;4.00;;;;;;;;;;6276714;22;20078;-71
2022/06/03 11:41:25;;;;;;;14.77;4.00;;;;;;;;;;6276701;22;20066;-71
2022/06/03 11:43:52;;;;;;;7.75;3.63;;;;;;;;;;6276505;22;20035;-71
2022/06/03 11:46:47;;;;;;;9.50;3.65;;;;;;;;;;6276664;22;20422;-71
2022/06/03 11:49:17;;;;;;;6.82;3.78;;;;;;;;;;6276549;22;20011;-70
2022/06/03 11:51:46;;;;;;;6.30;3.90;;;;;;;;;;6276618;22;20024;-71
2022/06/03 11:54:15;;;;;;;6.32;3.80;;;;;;;;;;6276598;22;20011;-71
2022/06/03 11:56:44;;;;;;;7.15;3.88;;;;;;;;;;6276132;22;20446;-71
2022/06/03 11:59:17;;;;;;;6.18;3.85;;;;;;;;;;6276309;22;20011;-71
2022/06/03 12:01:45;;;;;;;5.32;4.28;;;;;;;;;;6276540;22;20075;-71
2022/06/03 12:04:31;;;;;;;8.45;3.80;;;;;;;;;;6249261;22;20050;-71
2022/06/03 12:07:05;;;;;;;8.07;4.65;;;;;;;;;;6276361;22;20095;-70
2022/06/03 12:09:36;;;;;;;8.25;3.80;;;;;;;;;;6276215;22;20073;-71
2022/06/03 12:15:21;;;;;;;8.90;4.20;;;;;;;;;;6276276;22;20121;-70
2022/06/03 12:17:48;;;;;;;13.75;5.35;;;;;;;;;;6276453;22;20338;-71
2022/06/03 12:20:48;;;;;;;10.73;4.95;;;;;;;;;;6276283;22;20019;-71
2022/06/03 12:23:16;;;;;;;15.02;7.60;;;;;;;;;;6210151;22;20023;-70
2022/06/03 12:25:53;;;;;;;72.75;64.10;;;;;;;;;;6276089;22;20477;-71
2022/06/03 12:28:21;;;;;;;12.20;7.55;;;;;;;;;;6276110;22;20042;-71
2022/06/03 12:30:50;;;;;;;10.27;5.40;;;;;;;;;;6276305;22;20023;-71
2022/06/03 12:33:21;;;;;;;9.90;5.47;;;;;;;;;;6276245;22;20012;-70
2022/06/03 12:35:49;;;;;;;10.20;4.55;;;;;;;;;;6276133;22;20090;-70
2022/06/03 12:38:19;;;;;;;7.20;4.13;;;;;;;;;;6275888;22;20015;-70
2022/06/03 12:40:48;;;;;;;6.85;4.00;;;;;;;;;;6275875;22;20008;-70
2022/06/03 12:43:24;;;;;;;6.30;3.47;;;;;;;;;;6276007;22;20019;-70
2022/06/03 12:46:07;;;;;;;9.13;4.10;;;;;;;;;;6275784;22;20011;-70
2022/06/03 12:48:45;;;;;;;8.32;3.85;;;;;;;;;;6275891;22;20015;-71
2022/06/03 12:51:18;;;;;;;8.68;4.10;;;;;;;;;;6249119;22;20089;-71
2022/06/03 12:53:47;;;;;;;6.85;3.70;;;;;;;;;;6276281;22;20082;-70
2022/06/03 12:56:24;;;;;;;6.82;3.80;;;;;;;;;;6276088;22;20020;-70
2022/06/03 12:59:05;;;;;;;9.05;4.65;;;;;;;;;;6275667;22;20090;-70
2022/06/03 13:01:44;;;;;;;7.50;3.70;;;;;;;;;;6276038;22;20395;-70
2022/06/03 13:04:30;;;;;;;6.53;3.63;;;;;;;;;;6275672;22;20019;-70
2022/06/03 13:07:10;;;;;;;8.05;3.40;;;;;;;;;;6275827;22;20857;-70
2022/06/03 13:09:56;;;;;;;6.20;3.55;;;;;;;;;;6274993;22;20016;-70
2022/06/03 13:12:34;;;;;;;5.97;3.60;;;;;;;;;;6274316;22;20039;-71
2022/06/03 13:15:22;;;;;;;7.55;3.55;;;;;;;;;;6275260;22;20012;-71
2022/06/03 13:17:58;;;;;;;5.28;3.47;;;;;;;;;;6255232;22;20023;-71
2022/06/03 13:20:46;;;;;;;8.00;3.80;;;;;;;;;;6274917;22;20069;-71
2022/06/03 13:23:20;;;;;;;4.70;3.20;;;;;;;;;;6275385;22;20027;-72
2022/06/03 13:25:48;;;;;;;7.15;3.88;;;;;;;;;;6275441;22;20016;-70
2022/06/03 13:28:19;;;;;;;8.77;3.70;;;;;;;;;;6275429;22;20028;-71
2022/06/03 13:31:02;;;;;;;6.00;3.67;;;;;;;;;;6275505;22;20450;-71
2022/06/03 13:33:30;;;;;;;13.93;3.95;;;;;;;;;;6275245;22;20016;-71
2022/06/03 13:36:03;;;;;;;9.90;3.67;;;;;;;;;;6274853;22;20019;-71
2022/06/03 13:38:44;;;;;;;3.58;3.17;;;;;;;;;;6275199;22;20027;-71
2022/06/03 13:44:09;;;;;;;6.80;3.38;;;;;;;;;;6275263;22;20015;-71
2022/06/03 13:46:38;;;;;;;6.85;3.40;;;;;;;;;;6275386;22;20023;-71
2022/06/03 13:49:16;;;;;;;8.65;3.55;;;;;;;;;;6275316;22;20119;-70
2022/06/03 13:51:43;;;;;;;5.55;3.67;;;;;;;;;;6274854;22;20020;-72
2022/06/03 13:54:21;;;;;;;7.82;3.83;;;;;;;;;;6274411;22;20015;-71
2022/06/03 13:56:54;;;;;;;5.68;3.30;;;;;;;;;;6274565;22;20381;-70
2022/06/03 13:59:22;;;;;;;7.57;3.60;;;;;;;;;;6274754;22;20089;-71
2022/06/03 14:01:52;;;;;;;7.10;3.45;;;;;;;;;;6248046;22;20016;-71
2022/06/03 14:04:27;;;;;;;8.65;4.00;;;;;;;;;;6275121;22;20030;-70
2022/06/03 14:07:00;;;;;;;4.72;3.17;;;;;;;;;;6275162;22;20370;-70
2022/06/03 14:09:57;;;;;;;7.10;3.47;;;;;;;;;;6275390;22;20023;-70
2022/06/03 14:12:25;;;;;;;6.82;3.30;;;;;;;;;;6250093;22;20095;-70
2022/06/03 14:15:12;;;;;;;7.10;3.50;;;;;;;;;;6274999;22;20019;-70
2022/06/03 14:17:46;;;;;;;5.03;3.45;;;;;;;;;;6275025;22;20016;-70
2022/06/03 14:20:21;;;;;;;5.53;3.25;;;;;;;;;;6275454;22;20511;-70
2022/06/03 14:23:04;;;;;;;8.35;4.43;;;;;;;;;;6276912;22;20878;-70
2022/06/03 14:25:38;;;;;;;6.17;3.43;;;;;;;;;;6249815;22;20082;-70
2022/06/03 14:28:12;;;;;;;4.03;3.22;;;;;;;;;;6276279;22;20086;-70
2022/06/03 14:30:42;;;;;;;9.15;3.60;;;;;;;;;;6276799;22;20016;-70
2022/06/03 14:33:15;;;;;;;4.82;3.53;;;;;;;;;;6276827;22;20065;-70
2022/06/03 14:35:45;;;;;;;7.20;3.70;;;;;;;;;;6276182;22;20020;-70
2022/06/03 14:38:18;;;;;;;6.35;3.38;;;;;;;;;;6276587;22;20046;-71
2022/06/03 14:40:48;;;;;;;6.93;3.45;;;;;;;;;;6276853;22;20016;-72
2022/06/03 14:43:17;;;;;;;5.75;3.58;;;;;;;;;;6276518;22;20028;-72
2022/06/03 14:45:48;;;;;;;6.20;3.53;;;;;;;;;;6276749;22;20425;-71
2022/06/03 14:48:18;;;;;;;6.13;3.40;;;;;;;;;;6276741;22;20022;-71
2022/06/03 14:50:50;;;;;;;;;;;;;;;;;;6277151;22;20075;-70
2022/06/03 14:53:43;;;;;;;8.20;3.40;;;;;;;;;;6276039;22;19915;-70
2022/06/03 14:56:30;;;;;;;8.73;3.60;;;;;;;;;;6271772;22;20019;-72
2022/06/03 14:59:00;;;;;;;6.63;3.47;;;;;;;;;;6276040;22;20019;-71
2022/06/03 15:01:43;;;;;;;5.78;3.35;;;;;;;;;;6276651;22;20087;-71
2022/06/03 15:04:19;;;;;;;5.30;3.47;;;;;;;;;;6276271;22;20016;-70
2022/06/03 15:06:54;;;;;;;7.25;3.17;;;;;;;;;;6277013;22;20095;-71
2022/06/03 15:09:27;;;;;;;6.68;3.38;;;;;;;;;;6276439;22;20090;-70
2022/06/03 15:12:03;;;;;;;7.78;3.45;;;;;;;;;;6276166;22;20011;-71
2022/06/03 15:14:30;;;;;;;7.40;3.22;;;;;;;;;;6276372;22;20023;-70
2022/06/03 15:16:59;;;;;;;6.18;3.50;;;;;;;;;;6276321;22;20345;-70
2022/06/03 15:19:33;;;;;;;4.80;3.10;;;;;;;;;;6276468;22;20027;-69
2022/06/03 15:22:01;;;;;;;5.28;3.58;;;;;;;;;;6276580;22;20497;-70
2022/06/03 15:24:29;;;;;;;8.38;3.53;;;;;;;;;;6276185;22;20016;-70
2022/06/03 15:26:57;;;;;;;5.18;3.03;;;;;;;;;;6276071;22;20065;-70
2022/06/03 15:29:27;;;;;;;5.70;3.25;;;;;;;;;;6275871;22;20020;-72
2022/06/03 15:31:56;;;;;;;5.30;3.60;;;;;;;;;;6275298;22;20437;-70
2022/06/03 15:34:24;;;;;;;8.73;3.63;;;;;;;;;;6275463;22;20421;-71
2022/06/03 15:36:54;;;;;;;6.40;3.65;;;;;;;;;;6275668;22;20966;-71
2022/06/03 15:39:24;;;;;;;7.18;3.50;;;;;;;;;;6275831;22;20019;-70
2022/06/03 15:41:53;;;;;;;11.95;8.52;;;;;;;;;;6248119;22;20350;-70
2022/06/03 15:44:31;;;;;;;11.73;6.80;;;;;;;;;;6248149;22;20026;-71
2022/06/03 15:47:02;;;;;;;6.38;4.15;;;;;;;;;;6248986;22;20454;-71
2022/06/03 15:49:32;;;;;;;7.72;3.28;;;;;;;;;;6275634;22;20043;-71
2022/06/03 15:52:00;;;;;;;8.65;3.80;;;;;;;;;;6276049;22;20094;-70
2022/06/03 15:54:35;;;;;;;5.57;3.45;;;;;;;;;;6275891;22;20445;-70